sensor_id;sensor_type;location;lat;lon;timestamp;pressure;altitude;pressure_sealevel;temperature;humidity
72061;BME280;59925;52.136;5.420;2024-03-08T00:00:34;102038.13;;;2.40;100.00
72061;BME280;59925;52.136;5.420;2024-03-08T00:03:01;102035.03;;;2.36;100.00
72061;BME280;59925;52.136;5.420;2024-03-08T00:05:28;102028.28;;;2.34;100.00
72061;BME280;59925;52.136;5.420;2024-03-08T00:07:55;102022.16;;;2.33;100.00
72061;BME280;59925;52.136;5.420;2024-03-08T00:10:22;102022.72;;;2.28;100.00
72061;BME280;59925;52.136;5.420;2024-03-08T00:12:53;102020.44;;;2.25;100.00
72061;BME280;59925;52.136;5.420;2024-03-08T00:15:20;102025.13;;;2.23;100.00
72061;BME280;59925;52.136;5.420;2024-03-08T00:17:49;102026.28;;;2.21;100.00
72061;BME280;59925;52.136;5.420;2024-03-08T00:20:16;102026.47;;;2.19;100.00
72061;BME280;59925;52.136;5.420;2024-03-08T00:22:46;102023.19;;;2.17;100.00
72061;BME280;59925;52.136;5.420;2024-03-08T00:25:12;102021.75;;;2.14;100.00
72061;BME280;59925;52.136;5.420;2024-03-08T00:27:39;102023.09;;;2.10;100.00
72061;BME280;59925;52.136;5.420;2024-03-08T00:30:06;102023.47;;;2.07;100.00
72061;BME280;59925;52.136;5.420;2024-03-08T00:32:34;102022.47;;;2.08;100.00
72061;BME280;59925;52.136;5.420;2024-03-08T00:35:02;102021.00;;;2.06;100.00
72061;BME280;59925;52.136;5.420;2024-03-08T00:37:29;102018.72;;;2.03;100.00
72061;BME280;59925;52.136;5.420;2024-03-08T00:39:55;102012.78;;;2.01;100.00
72061;BME280;59925;52.136;5.420;2024-03-08T00:42:22;102006.03;;;1.98;100.00
72061;BME280;59925;52.136;5.420;2024-03-08T00:44:49;102003.59;;;1.96;100.00
72061;BME280;59925;52.136;5.420;2024-03-08T00:47:18;102014.19;;;1.96;100.00
72061;BME280;59925;52.136;5.420;2024-03-08T00:49:45;102008.41;;;1.93;100.00
72061;BME280;59925;52.136;5.420;2024-03-08T00:52:13;102009.44;;;1.92;100.00
72061;BME280;59925;52.136;5.420;2024-03-08T00:54:39;102002.88;;;1.88;100.00
72061;BME280;59925;52.136;5.420;2024-03-08T00:57:06;101996.28;;;1.83;100.00
72061;BME280;59925;52.136;5.420;2024-03-08T00:59:33;101998.94;;;1.83;100.00
72061;BME280;59925;52.136;5.420;2024-03-08T01:02:02;101990.56;;;1.80;100.00
72061;BME280;59925;52.136;5.420;2024-03-08T01:04:28;101985.47;;;1.78;100.00
72061;BME280;59925;52.136;5.420;2024-03-08T01:06:56;101991.75;;;1.77;100.00
72061;BME280;59925;52.136;5.420;2024-03-08T01:09:26;101978.03;;;1.74;100.00
72061;BME280;59925;52.136;5.420;2024-03-08T01:11:54;101972.50;;;1.68;100.00
72061;BME280;59925;52.136;5.420;2024-03-08T01:14:21;101967.22;;;1.68;100.00
72061;BME280;59925;52.136;5.420;2024-03-08T01:16:57;101970.22;;;1.65;100.00
72061;BME280;59925;52.136;5.420;2024-03-08T01:19:24;101959.00;;;1.63;100.00
72061;BME280;59925;52.136;5.420;2024-03-08T01:21:51;101961.84;;;1.62;100.00
72061;BME280;59925;52.136;5.420;2024-03-08T01:24:17;101953.63;;;1.57;100.00
72061;BME280;59925;52.136;5.420;2024-03-08T01:26:44;101951.97;;;1.56;100.00
72061;BME280;59925;52.136;5.420;2024-03-08T01:29:11;101952.97;;;1.55;100.00
72061;BME280;59925;52.136;5.420;2024-03-08T01:31:37;101943.78;;;1.50;100.00
72061;BME280;59925;52.136;5.420;2024-03-08T01:34:04;101946.59;;;1.49;100.00
72061;BME280;59925;52.136;5.420;2024-03-08T01:36:31;101944.28;;;1.46;100.00
72061;BME280;59925;52.136;5.420;2024-03-08T01:38:57;101938.41;;;1.44;100.00
72061;BME280;59925;52.136;5.420;2024-03-08T01:41:24;101937.75;;;1.42;100.00
72061;BME280;59925;52.136;5.420;2024-03-08T01:43:51;101931.00;;;1.39;100.00
72061;BME280;59925;52.136;5.420;2024-03-08T01:46:21;101929.53;;;1.36;100.00
72061;BME280;59925;52.136;5.420;2024-03-08T01:48:51;101929.72;;;1.35;100.00
72061;BME280;59925;52.136;5.420;2024-03-08T01:51:18;101925.63;;;1.32;100.00
72061;BME280;59925;52.136;5.420;2024-03-08T01:53:46;101927.78;;;1.29;100.00
72061;BME280;59925;52.136;5.420;2024-03-08T01:56:14;101918.22;;;1.28;100.00
72061;BME280;59925;52.136;5.420;2024-03-08T01:58:41;101919.41;;;1.25;100.00
72061;BME280;59925;52.136;5.420;2024-03-08T02:01:13;101912.84;;;1.21;100.00
72061;BME280;59925;52.136;5.420;2024-03-08T02:03:44;101915.03;;;1.17;100.00
72061;BME280;59925;52.136;5.420;2024-03-08T02:06:12;101914.38;;;1.15;100.00
72061;BME280;59925;52.136;5.420;2024-03-08T02:08:42;101910.28;;;1.13;100.00
72061;BME280;59925;52.136;5.420;2024-03-08T02:11:10;101908.66;;;1.12;100.00
72061;BME280;59925;52.136;5.420;2024-03-08T02:13:37;101916.75;;;1.10;100.00
72061;BME280;59925;52.136;5.420;2024-03-08T02:16:04;101906.34;;;1.09;100.00
72061;BME280;59925;52.136;5.420;2024-03-08T02:18:34;101910.84;;;1.08;100.00
72061;BME280;59925;52.136;5.420;2024-03-08T02:21:02;101906.25;;;1.02;100.00
72061;BME280;59925;52.136;5.420;2024-03-08T02:23:30;101901.16;;;1.00;100.00
72061;BME280;59925;52.136;5.420;2024-03-08T02:25:57;101905.16;;;0.96;100.00
72061;BME280;59925;52.136;5.420;2024-03-08T02:28:24;101899.06;;;0.96;100.00
72061;BME280;59925;52.136;5.420;2024-03-08T02:30:52;101888.66;;;0.94;100.00
72061;BME280;59925;52.136;5.420;2024-03-08T02:33:23;101888.03;;;0.92;100.00
72061;BME280;59925;52.136;5.420;2024-03-08T02:35:50;101881.47;;;0.88;100.00
72061;BME280;59925;52.136;5.420;2024-03-08T02:38:18;101889.56;;;0.86;100.00
72061;BME280;59925;52.136;5.420;2024-03-08T02:40:46;101883.66;;;0.84;100.00
72061;BME280;59925;52.136;5.420;2024-03-08T02:43:14;101882.16;;;0.82;100.00
72061;BME280;59925;52.136;5.420;2024-03-08T02:45:41;101876.25;;;0.80;100.00
72061;BME280;59925;52.136;5.420;2024-03-08T02:48:08;101873.97;;;0.76;100.00
72061;BME280;59925;52.136;5.420;2024-03-08T02:50:35;101865.41;;;0.74;100.00
72061;BME280;59925;52.136;5.420;2024-03-08T02:53:03;101867.41;;;0.72;100.00
72061;BME280;59925;52.136;5.420;2024-03-08T02:55:30;101866.75;;;0.70;100.00
72061;BME280;59925;52.136;5.420;2024-03-08T02:57:57;101856.75;;;0.66;100.00
72061;BME280;59925;52.136;5.420;2024-03-08T03:00:23;101850.00;;;0.63;100.00
72061;BME280;59925;52.136;5.420;2024-03-08T03:02:50;101851.00;;;0.62;100.00
72061;BME280;59925;52.136;5.420;2024-03-08T03:05:21;101865.19;;;0.61;100.00
72061;BME280;59925;52.136;5.420;2024-03-08T03:07:47;101852.34;;;0.58;100.00
72061;BME280;59925;52.136;5.420;2024-03-08T03:10:16;101843.63;;;0.57;100.00
72061;BME280;59925;52.136;5.420;2024-03-08T03:12:45;101847.25;;;0.56;100.00
72061;BME280;59925;52.136;5.420;2024-03-08T03:15:12;101847.25;;;0.56;100.00
72061;BME280;59925;52.136;5.420;2024-03-08T03:17:40;101838.03;;;0.52;100.00
72061;BME280;59925;52.136;5.420;2024-03-08T03:20:08;101839.03;;;0.51;100.00
72061;BME280;59925;52.136;5.420;2024-03-08T03:22:41;101843.50;;;0.51;100.00
72061;BME280;59925;52.136;5.420;2024-03-08T03:25:08;101835.59;;;0.51;100.00
72061;BME280;59925;52.136;5.420;2024-03-08T03:27:36;101834.59;;;0.52;100.00
72061;BME280;59925;52.136;5.420;2024-03-08T03:30:04;101826.84;;;0.50;100.00
72061;BME280;59925;52.136;5.420;2024-03-08T03:32:48;101831.47;;;0.48;100.00
72061;BME280;59925;52.136;5.420;2024-03-08T03:35:19;101830.66;;;0.48;100.00
72061;BME280;59925;52.136;5.420;2024-03-08T03:37:47;101821.09;;;0.47;100.00
72061;BME280;59925;52.136;5.420;2024-03-08T03:40:38;101823.94;;;0.45;100.00
72061;BME280;59925;52.136;5.420;2024-03-08T03:43:06;101819.47;;;0.45;100.00
72061;BME280;59925;52.136;5.420;2024-03-08T03:45:33;101820.31;;;0.46;100.00
72061;BME280;59925;52.136;5.420;2024-03-08T03:48:08;101815.84;;;0.47;100.00
72061;BME280;59925;52.136;5.420;2024-03-08T03:50:37;101819.47;;;0.45;100.00
72061;BME280;59925;52.136;5.420;2024-03-08T03:53:04;101814.53;;;0.42;100.00
72061;BME280;59925;52.136;5.420;2024-03-08T03:55:35;101812.91;;;0.41;100.00
72061;BME280;59925;52.136;5.420;2024-03-08T03:58:03;101809.09;;;0.44;100.00
72061;BME280;59925;52.136;5.420;2024-03-08T04:00:30;101814.19;;;0.45;100.00
72061;BME280;59925;52.136;5.420;2024-03-08T04:02:56;101816.03;;;0.45;100.00
72061;BME280;59925;52.136;5.420;2024-03-08T04:05:26;101804.81;;;0.43;100.00
72061;BME280;59925;52.136;5.420;2024-03-08T04:07:52;101806.47;;;0.44;100.00
72061;BME280;59925;52.136;5.420;2024-03-08T04:10:19;101808.25;;;0.43;100.00
72061;BME280;59925;52.136;5.420;2024-03-08T04:12:46;101806.47;;;0.44;100.00
72061;BME280;59925;52.136;5.420;2024-03-08T04:15:13;101800.34;;;0.43;100.00
72061;BME280;59925;52.136;5.420;2024-03-08T04:17:40;101804.81;;;0.43;100.00
72061;BME280;59925;52.136;5.420;2024-03-08T04:20:07;101795.25;;;0.42;100.00
72061;BME280;59925;52.136;5.420;2024-03-08T04:22:37;101800.34;;;0.43;100.00
72061;BME280;59925;52.136;5.420;2024-03-08T04:25:05;101794.63;;;0.40;100.00
72061;BME280;59925;52.136;5.420;2024-03-08T04:27:33;101794.97;;;0.37;100.00
72061;BME280;59925;52.136;5.420;2024-03-08T04:30:01;101788.69;;;0.38;100.00
72061;BME280;59925;52.136;5.420;2024-03-08T04:32:28;101791.34;;;0.38;100.00
72061;BME280;59925;52.136;5.420;2024-03-08T04:34:59;101786.25;;;0.36;100.00
72061;BME280;59925;52.136;5.420;2024-03-08T04:37:27;101789.03;;;0.35;100.00
72061;BME280;59925;52.136;5.420;2024-03-08T04:39:56;101786.41;;;0.35;100.00
72061;BME280;59925;52.136;5.420;2024-03-08T04:42:22;101778.50;;;0.35;100.00
72061;BME280;59925;52.136;5.420;2024-03-08T04:44:49;101784.75;;;0.34;100.00
72061;BME280;59925;52.136;5.420;2024-03-08T04:47:15;101783.94;;;0.33;100.00
72061;BME280;59925;52.136;5.420;2024-03-08T04:49:44;101782.13;;;0.34;100.00
72061;BME280;59925;52.136;5.420;2024-03-08T04:52:11;101783.16;;;0.33;100.00
72061;BME280;59925;52.136;5.420;2024-03-08T04:54:38;101779.66;;;0.32;100.00
72061;BME280;59925;52.136;5.420;2024-03-08T04:57:05;101769.31;;;0.30;100.00
72061;BME280;59925;52.136;5.420;2024-03-08T04:59:35;101773.75;;;0.30;100.00
72061;BME280;59925;52.136;5.420;2024-03-08T05:02:02;101773.09;;;0.28;100.00
72061;BME280;59925;52.136;5.420;2024-03-08T05:04:29;101767.81;;;0.28;100.00
72061;BME280;59925;52.136;5.420;2024-03-08T05:06:56;101771.47;;;0.27;100.00
72061;BME280;59925;52.136;5.420;2024-03-08T05:09:22;101767.22;;;0.26;100.00
72061;BME280;59925;52.136;5.420;2024-03-08T05:11:50;101770.00;;;0.24;100.00
72061;BME280;59925;52.136;5.420;2024-03-08T05:14:17;101771.84;;;0.24;100.00
72061;BME280;59925;52.136;5.420;2024-03-08T05:16:44;101775.47;;;0.23;100.00
72061;BME280;59925;52.136;5.420;2024-03-08T05:19:16;101765.06;;;0.21;100.00
72061;BME280;59925;52.136;5.420;2024-03-08T05:21:46;101770.53;;;0.20;100.00
72061;BME280;59925;52.136;5.420;2024-03-08T05:24:13;101769.75;;;0.19;100.00
72061;BME280;59925;52.136;5.420;2024-03-08T05:26:41;101766.44;;;0.17;100.00
72061;BME280;59925;52.136;5.420;2024-03-08T05:29:08;101762.97;;;0.17;100.00
72061;BME280;59925;52.136;5.420;2024-03-08T05:31:53;101759.69;;;0.14;100.00
72061;BME280;59925;52.136;5.420;2024-03-08T05:34:20;101759.88;;;0.13;100.00
72061;BME280;59925;52.136;5.420;2024-03-08T05:36:48;101762.72;;;0.11;100.00
72061;BME280;59925;52.136;5.420;2024-03-08T05:39:19;101754.16;;;0.09;100.00
72061;BME280;59925;52.136;5.420;2024-03-08T05:41:48;101754.94;;;0.10;100.00
72061;BME280;59925;52.136;5.420;2024-03-08T05:44:15;101757.78;;;0.08;100.00
72061;BME280;59925;52.136;5.420;2024-03-08T05:46:45;101750.22;;;0.05;100.00
72061;BME280;59925;52.136;5.420;2024-03-08T05:49:13;101752.03;;;0.05;100.00
72061;BME280;59925;52.136;5.420;2024-03-08T05:51:40;101744.13;;;0.05;100.00
72061;BME280;59925;52.136;5.420;2024-03-08T05:54:11;101752.19;;;0.03;100.00
72061;BME280;59925;52.136;5.420;2024-03-08T05:56:42;101748.91;;;0.01;100.00
72061;BME280;59925;52.136;5.420;2024-03-08T05:59:10;101746.47;;;-0.01;100.00
72061;BME280;59925;52.136;5.420;2024-03-08T06:01:37;101741.00;;;0.01;100.00
72061;BME280;59925;52.136;5.420;2024-03-08T06:04:04;101740.19;;;0.01;100.00
72061;BME280;59925;52.136;5.420;2024-03-08T06:06:31;101738.56;;;-0.01;100.00
72061;BME280;59925;52.136;5.420;2024-03-08T06:08:58;101734.28;;;-0.02;100.00
72061;BME280;59925;52.136;5.420;2024-03-08T06:11:26;101727.38;;;-0.03;100.00
72061;BME280;59925;52.136;5.420;2024-03-08T06:13:57;101730.19;;;-0.04;100.00
72061;BME280;59925;52.136;5.420;2024-03-08T06:16:27;101734.63;;;-0.05;100.00
72061;BME280;59925;52.136;5.420;2024-03-08T06:18:56;101734.63;;;-0.05;100.00
72061;BME280;59925;52.136;5.420;2024-03-08T06:21:24;101729.19;;;-0.03;100.00
72061;BME280;59925;52.136;5.420;2024-03-08T06:23:53;101726.56;;;-0.03;100.00
72061;BME280;59925;52.136;5.420;2024-03-08T06:26:24;101734.28;;;-0.02;100.00
72061;BME280;59925;52.136;5.420;2024-03-08T06:28:55;101732.28;;;0.01;100.00
72061;BME280;59925;52.136;5.420;2024-03-08T06:31:22;101732.28;;;0.01;100.00
72061;BME280;59925;52.136;5.420;2024-03-08T06:33:49;101738.84;;;0.05;100.00
72061;BME280;59925;52.136;5.420;2024-03-08T06:36:17;101727.13;;;0.07;100.00
72061;BME280;59925;52.136;5.420;2024-03-08T06:38:48;101725.13;;;0.09;100.00
72061;BME280;59925;52.136;5.420;2024-03-08T06:41:16;101732.06;;;0.10;100.00
72061;BME280;59925;52.136;5.420;2024-03-08T06:43:43;101726.25;;;0.15;100.00
72061;BME280;59925;52.136;5.420;2024-03-08T06:46:10;101727.69;;;0.18;100.00
72061;BME280;59925;52.136;5.420;2024-03-08T06:48:39;101718.59;;;0.20;100.00
72061;BME280;59925;52.136;5.420;2024-03-08T06:51:06;101722.72;;;0.23;100.00
72061;BME280;59925;52.136;5.420;2024-03-08T06:53:33;101720.53;;;0.26;100.00
72061;BME280;59925;52.136;5.420;2024-03-08T06:56:05;101721.84;;;0.30;100.00
72061;BME280;59925;52.136;5.420;2024-03-08T06:58:31;101717.81;;;0.35;100.00
72061;BME280;59925;52.136;5.420;2024-03-08T07:00:59;101721.94;;;0.37;100.00
72061;BME280;59925;52.136;5.420;2024-03-08T07:03:27;101724.03;;;0.42;100.00
72061;BME280;59925;52.136;5.420;2024-03-08T07:05:56;101712.94;;;0.47;100.00
72061;BME280;59925;52.136;5.420;2024-03-08T07:08:28;101717.03;;;0.49;100.00
72061;BME280;59925;52.136;5.420;2024-03-08T07:10:57;101708.56;;;0.54;100.00
72061;BME280;59925;52.136;5.420;2024-03-08T07:13:26;101711.50;;;0.59;100.00
72061;BME280;59925;52.136;5.420;2024-03-08T07:15:55;101717.84;;;0.65;100.00
72061;BME280;59925;52.136;5.420;2024-03-08T07:18:22;101709.38;;;0.69;100.00
72061;BME280;59925;52.136;5.420;2024-03-08T07:20:49;101716.59;;;0.75;100.00
72061;BME280;59925;52.136;5.420;2024-03-08T07:23:15;101709.56;;;0.83;100.00
72061;BME280;59925;52.136;5.420;2024-03-08T07:26:02;101705.22;;;0.90;100.00
72061;BME280;59925;52.136;5.420;2024-03-08T07:28:29;101696.53;;;0.96;100.00
72061;BME280;59925;52.136;5.420;2024-03-08T07:31:00;101700.09;;;1.03;100.00
72061;BME280;59925;52.136;5.420;2024-03-08T07:33:39;101693.44;;;1.07;100.00
72061;BME280;59925;52.136;5.420;2024-03-08T07:36:06;101690.69;;;1.16;100.00
72061;BME280;59925;52.136;5.420;2024-03-08T07:38:32;101688.50;;;1.19;100.00
72061;BME280;59925;52.136;5.420;2024-03-08T07:41:00;101691.03;;;1.28;100.00
72061;BME280;59925;52.136;5.420;2024-03-08T07:43:30;101682.16;;;1.35;100.00
72061;BME280;59925;52.136;5.420;2024-03-08T07:45:56;101683.06;;;1.43;100.00
72061;BME280;59925;52.136;5.420;2024-03-08T07:48:23;101681.13;;;1.51;100.00
72061;BME280;59925;52.136;5.420;2024-03-08T07:50:50;101682.63;;;1.61;100.00
72061;BME280;59925;52.136;5.420;2024-03-08T07:53:17;101679.06;;;1.68;99.71
72061;BME280;59925;52.136;5.420;2024-03-08T07:55:43;101677.72;;;1.79;99.98
72061;BME280;59925;52.136;5.420;2024-03-08T07:58:11;101676.75;;;1.87;99.31
72061;BME280;59925;52.136;5.420;2024-03-08T08:00:37;101675.44;;;1.98;98.75
72061;BME280;59925;52.136;5.420;2024-03-08T08:03:04;101677.75;;;2.08;98.40
72061;BME280;59925;52.136;5.420;2024-03-08T08:05:31;101667.81;;;2.10;97.53
72061;BME280;59925;52.136;5.420;2024-03-08T08:08:02;101653.41;;;2.19;97.42
72061;BME280;59925;52.136;5.420;2024-03-08T08:10:32;101655.94;;;2.34;97.15
72061;BME280;59925;52.136;5.420;2024-03-08T08:12:59;101658.69;;;2.48;96.92
72061;BME280;59925;52.136;5.420;2024-03-08T08:15:26;101653.44;;;2.61;96.28
72061;BME280;59925;52.136;5.420;2024-03-08T08:17:54;101651.88;;;2.73;95.84
72061;BME280;59925;52.136;5.420;2024-03-08T08:20:21;101639.94;;;2.91;96.03
72061;BME280;59925;52.136;5.420;2024-03-08T08:22:49;101646.72;;;3.07;95.51
72061;BME280;59925;52.136;5.420;2024-03-08T08:25:16;101639.00;;;3.12;94.06
72061;BME280;59925;52.136;5.420;2024-03-08T08:27:46;101639.81;;;3.19;93.61
72061;BME280;59925;52.136;5.420;2024-03-08T08:30:13;101643.09;;;3.28;93.14
72061;BME280;59925;52.136;5.420;2024-03-08T08:32:40;101642.34;;;3.41;92.51
72061;BME280;59925;52.136;5.420;2024-03-08T08:35:08;101640.50;;;3.48;91.56
72061;BME280;59925;52.136;5.420;2024-03-08T08:37:38;101636.03;;;3.69;91.91
72061;BME280;59925;52.136;5.420;2024-03-08T08:40:06;101633.97;;;3.84;90.79
72061;BME280;59925;52.136;5.420;2024-03-08T08:42:36;101622.16;;;3.87;90.57
72061;BME280;59925;52.136;5.420;2024-03-08T08:45:05;101617.03;;;3.99;89.33
72061;BME280;59925;52.136;5.420;2024-03-08T08:47:42;101606.00;;;4.16;89.55
72061;BME280;59925;52.136;5.420;2024-03-08T08:50:09;101615.44;;;4.70;89.69
72061;BME280;59925;52.136;5.420;2024-03-08T08:52:38;101603.53;;;5.18;88.24
72061;BME280;59925;52.136;5.420;2024-03-08T08:55:06;101609.00;;;5.56;86.68
72061;BME280;59925;52.136;5.420;2024-03-08T08:57:33;101606.78;;;6.03;85.65
72061;BME280;59925;52.136;5.420;2024-03-08T08:59:59;101606.06;;;6.15;83.33
72061;BME280;59925;52.136;5.420;2024-03-08T09:02:26;101598.66;;;6.17;81.97
72061;BME280;59925;52.136;5.420;2024-03-08T09:04:53;101606.56;;;6.05;80.83
72061;BME280;59925;52.136;5.420;2024-03-08T09:07:20;101600.16;;;5.87;80.94
72061;BME280;59925;52.136;5.420;2024-03-08T09:09:47;101595.59;;;5.94;80.32
72061;BME280;59925;52.136;5.420;2024-03-08T09:12:13;101594.22;;;5.85;80.42
72061;BME280;59925;52.136;5.420;2024-03-08T09:14:40;101592.69;;;5.96;80.96
72061;BME280;59925;52.136;5.420;2024-03-08T09:17:08;101581.38;;;6.26;80.98
72061;BME280;59925;52.136;5.420;2024-03-08T09:19:35;101581.88;;;6.16;79.92
72061;BME280;59925;52.136;5.420;2024-03-08T09:22:03;101579.81;;;6.18;78.92
72061;BME280;59925;52.136;5.420;2024-03-08T09:24:30;101584.38;;;6.11;78.75
72061;BME280;59925;52.136;5.420;2024-03-08T09:26:57;101575.09;;;6.20;79.25
72061;BME280;59925;52.136;5.420;2024-03-08T09:29:27;101564.56;;;6.25;79.29
72061;BME280;59925;52.136;5.420;2024-03-08T09:31:54;101561.47;;;6.47;78.66
72061;BME280;59925;52.136;5.420;2024-03-08T09:34:21;101557.88;;;6.53;78.54
72061;BME280;59925;52.136;5.420;2024-03-08T09:36:54;101553.28;;;7.33;75.35
72061;BME280;59925;52.136;5.420;2024-03-08T09:39:20;101544.72;;;7.67;76.59
72061;BME280;59925;52.136;5.420;2024-03-08T09:41:49;101544.59;;;7.86;75.32
72061;BME280;59925;52.136;5.420;2024-03-08T09:44:16;101543.78;;;7.73;75.03
72061;BME280;59925;52.136;5.420;2024-03-08T09:46:42;101542.41;;;7.59;75.19
72061;BME280;59925;52.136;5.420;2024-03-08T09:49:09;101536.00;;;7.60;74.21
72061;BME280;59925;52.136;5.420;2024-03-08T09:51:38;101532.50;;;7.35;73.94
72061;BME280;59925;52.136;5.420;2024-03-08T09:54:07;101521.03;;;7.35;74.19
72061;BME280;59925;52.136;5.420;2024-03-08T09:56:46;101516.97;;;7.44;74.15
72061;BME280;59925;52.136;5.420;2024-03-08T09:59:13;101514.09;;;7.70;73.26
72061;BME280;59925;52.136;5.420;2024-03-08T10:01:49;101513.94;;;7.88;73.39
72061;BME280;59925;52.136;5.420;2024-03-08T10:04:16;101506.97;;;7.99;73.33
72061;BME280;59925;52.136;5.420;2024-03-08T10:06:43;101508.25;;;8.37;73.68
72061;BME280;59925;52.136;5.420;2024-03-08T10:09:13;101512.59;;;8.67;72.01
72061;BME280;59925;52.136;5.420;2024-03-08T10:11:40;101497.78;;;8.07;70.58
72061;BME280;59925;52.136;5.420;2024-03-08T10:14:08;101502.97;;;8.13;71.37
72061;BME280;59925;52.136;5.420;2024-03-08T10:16:35;101499.53;;;8.13;70.71
72061;BME280;59925;52.136;5.420;2024-03-08T10:19:02;101485.19;;;8.19;70.32
72061;BME280;59925;52.136;5.420;2024-03-08T10:21:32;101479.25;;;8.29;70.42
72061;BME280;59925;52.136;5.420;2024-03-08T10:23:59;101481.31;;;8.68;70.74
72061;BME280;59925;52.136;5.420;2024-03-08T10:26:25;101466.25;;;8.96;69.34
72061;BME280;59925;52.136;5.420;2024-03-08T10:28:52;101462.06;;;8.83;69.12
72061;BME280;59925;52.136;5.420;2024-03-08T10:31:19;101461.31;;;8.87;69.29
72061;BME280;59925;52.136;5.420;2024-03-08T10:33:46;101463.66;;;9.18;68.94
72061;BME280;59925;52.136;5.420;2024-03-08T10:36:14;101465.53;;;9.34;68.15
72061;BME280;59925;52.136;5.420;2024-03-08T10:38:42;101454.69;;;9.24;67.77
72061;BME280;59925;52.136;5.420;2024-03-08T10:41:14;101450.94;;;9.64;67.84
72061;BME280;59925;52.136;5.420;2024-03-08T10:49:18;101434.75;;;9.76;66.66
72061;BME280;59925;52.136;5.420;2024-03-08T10:51:51;101432.13;;;9.59;65.28
72061;BME280;59925;52.136;5.420;2024-03-08T10:54:20;101420.00;;;9.74;64.78
72061;BME280;59925;52.136;5.420;2024-03-08T10:56:48;101426.59;;;9.88;65.41
72061;BME280;59925;52.136;5.420;2024-03-08T10:59:15;101421.31;;;9.71;64.32
72061;BME280;59925;52.136;5.420;2024-03-08T11:01:43;101405.84;;;10.01;64.62
72061;BME280;59925;52.136;5.420;2024-03-08T11:04:10;101394.97;;;10.12;64.40
72061;BME280;59925;52.136;5.420;2024-03-08T11:09:08;101386.31;;;10.33;62.71
72061;BME280;59925;52.136;5.420;2024-03-08T11:11:39;101383.13;;;10.31;62.38
72061;BME280;59925;52.136;5.420;2024-03-08T11:14:44;101372.66;;;10.62;62.51
72061;BME280;59925;52.136;5.420;2024-03-08T11:17:13;101369.09;;;10.88;60.63
72061;BME280;59925;52.136;5.420;2024-03-08T11:19:48;101371.94;;;10.71;60.98
72061;BME280;59925;52.136;5.420;2024-03-08T11:22:28;101360.53;;;10.92;60.92
72061;BME280;59925;52.136;5.420;2024-03-08T11:25:08;101355.69;;;10.88;60.14
72061;BME280;59925;52.136;5.420;2024-03-08T11:27:39;101351.44;;;10.93;60.94
72061;BME280;59925;52.136;5.420;2024-03-08T11:30:06;101337.50;;;11.01;60.31
72061;BME280;59925;52.136;5.420;2024-03-08T11:32:46;101340.28;;;11.16;60.45
72061;BME280;59925;52.136;5.420;2024-03-08T11:35:21;101328.84;;;11.37;60.24
72061;BME280;59925;52.136;5.420;2024-03-08T11:37:50;101323.22;;;11.43;59.96
72061;BME280;59925;52.136;5.420;2024-03-08T11:40:17;101324.13;;;11.80;58.46
72061;BME280;59925;52.136;5.420;2024-03-08T11:42:46;101316.84;;;11.70;58.23
72061;BME280;59925;52.136;5.420;2024-03-08T11:45:18;101313.38;;;11.85;57.10
72061;BME280;59925;52.136;5.420;2024-03-08T11:47:48;101310.97;;;11.84;58.24
72061;BME280;59925;52.136;5.420;2024-03-08T11:50:16;101301.81;;;11.79;57.31
72061;BME280;59925;52.136;5.420;2024-03-08T11:52:45;101304.28;;;11.91;56.54
72061;BME280;59925;52.136;5.420;2024-03-08T11:55:12;101292.50;;;12.13;57.15
72061;BME280;59925;52.136;5.420;2024-03-08T11:57:39;101291.16;;;12.41;55.66
72061;BME280;59925;52.136;5.420;2024-03-08T12:00:16;101280.94;;;12.18;55.15
72061;BME280;59925;52.136;5.420;2024-03-08T12:03:05;101280.91;;;12.33;54.65
72061;BME280;59925;52.136;5.420;2024-03-08T12:05:33;101282.00;;;12.37;54.97
72061;BME280;59925;52.136;5.420;2024-03-08T12:08:01;101275.00;;;12.47;52.55
72061;BME280;59925;52.136;5.420;2024-03-08T12:10:29;101278.78;;;12.20;53.68
72061;BME280;59925;52.136;5.420;2024-03-08T12:12:58;101268.81;;;12.56;54.11
72061;BME280;59925;52.136;5.420;2024-03-08T12:15:32;101256.84;;;12.99;53.25
72061;BME280;59925;52.136;5.420;2024-03-08T12:18:01;101257.19;;;12.77;51.56
72061;BME280;59925;52.136;5.420;2024-03-08T12:20:31;101255.19;;;13.08;53.54
72061;BME280;59925;52.136;5.420;2024-03-08T12:22:59;101254.69;;;12.96;49.39
72061;BME280;59925;52.136;5.420;2024-03-08T12:25:30;101251.25;;;12.75;52.19
72061;BME280;59925;52.136;5.420;2024-03-08T12:28:07;101243.44;;;12.83;49.97
72061;BME280;59925;52.136;5.420;2024-03-08T12:30:46;101250.13;;;12.91;51.64
72061;BME280;59925;52.136;5.420;2024-03-08T12:33:14;101238.66;;;13.25;51.68
72061;BME280;59925;52.136;5.420;2024-03-08T12:35:50;101232.97;;;13.37;50.60
72061;BME280;59925;52.136;5.420;2024-03-08T12:38:17;101222.19;;;12.82;50.53
72061;BME280;59925;52.136;5.420;2024-03-08T12:40:43;101220.09;;;12.63;50.55
72061;BME280;59925;52.136;5.420;2024-03-08T12:43:10;101222.66;;;12.99;51.61
72061;BME280;59925;52.136;5.420;2024-03-08T12:45:38;101217.47;;;13.13;51.00
72061;BME280;59925;52.136;5.420;2024-03-08T12:48:12;101198.50;;;12.84;50.71
72061;BME280;59925;52.136;5.420;2024-03-08T12:50:41;101215.69;;;12.88;50.33
72061;BME280;59925;52.136;5.420;2024-03-08T12:53:10;101200.75;;;13.22;50.29
72061;BME280;59925;52.136;5.420;2024-03-08T12:55:36;101203.09;;;13.33;49.81
72061;BME280;59925;52.136;5.420;2024-03-08T12:58:03;101206.78;;;13.03;48.96
72061;BME280;59925;52.136;5.420;2024-03-08T13:00:35;101201.81;;;13.26;50.43
72061;BME280;59925;52.136;5.420;2024-03-08T13:03:09;101202.66;;;13.16;49.34
72061;BME280;59925;52.136;5.420;2024-03-08T13:05:37;101186.81;;;13.04;49.87
72061;BME280;59925;52.136;5.420;2024-03-08T13:08:07;101189.66;;;13.28;48.84